createdAt,value
2018-05-27T00:00:40.409Z,42.1
2018-05-27T00:01:30.843Z,42.1
2018-05-27T00:02:21.450Z,42
2018-05-27T00:03:10.748Z,42.1
2018-05-27T00:04:01.560Z,42.1
2018-05-27T00:04:50.780Z,42
2018-05-27T00:05:41.446Z,42
2018-05-27T00:06:31.444Z,42
2018-05-27T00:07:21.006Z,42
2018-05-27T00:08:11.584Z,42
2018-05-27T00:09:01.947Z,42
2018-05-27T00:09:52.010Z,42
2018-05-27T00:10:41.622Z,41.9
2018-05-27T00:11:31.861Z,41.9
2018-05-27T00:12:22.135Z,42
2018-05-27T00:13:12.011Z,41.9
2018-05-27T00:14:02.702Z,41.9
2018-05-27T00:14:51.796Z,41.9
2018-05-27T00:15:42.434Z,41.9
2018-05-27T00:16:32.533Z,41.9
2018-05-27T00:17:22.279Z,41.9
2018-05-27T00:18:12.608Z,41.9
2018-05-27T00:19:02.670Z,41.9
2018-05-27T00:19:52.196Z,41.9
2018-05-27T00:20:42.496Z,41.9
2018-05-27T00:21:32.302Z,41.9
2018-05-27T00:22:22.949Z,41.9
2018-05-27T00:23:13.003Z,41.8
2018-05-27T00:24:03.064Z,41.8
2018-05-27T00:24:52.698Z,41.8
2018-05-27T00:25:42.132Z,41.8
2018-05-27T00:26:32.476Z,41.8
2018-05-27T00:27:22.761Z,41.8
2018-05-27T00:28:13.376Z,41.8
2018-05-27T00:29:02.940Z,41.8
2018-05-27T00:29:53.541Z,41.8
2018-05-27T00:30:43.041Z,41.8
2018-05-27T00:31:33.635Z,41.8
2018-05-27T00:32:23.711Z,41.8
2018-05-27T00:33:12.975Z,41.8
2018-05-27T00:34:03.607Z,41.8
2018-05-27T00:34:53.640Z,41.7
2018-05-27T00:35:43.198Z,41.8
2018-05-27T00:36:34.074Z,41.7
2018-05-27T00:37:23.530Z,41.7
2018-05-27T00:38:13.896Z,41.7
2018-05-27T00:39:03.424Z,41.7
2018-05-27T00:39:54.009Z,41.7
2018-05-27T00:40:44.077Z,41.7
2018-05-27T00:41:34.139Z,41.7
2018-05-27T00:42:23.939Z,41.7
2018-05-27T00:43:14.270Z,41.7
2018-05-27T00:44:04.467Z,41.6
2018-05-27T00:44:54.694Z,41.6
2018-05-27T00:45:44.467Z,41.6
2018-05-27T00:46:34.806Z,41.6
2018-05-27T00:47:24.021Z,41.6
2018-05-27T00:48:14.961Z,41.6
2018-05-27T00:49:05.005Z,41.6
2018-05-27T00:49:55.622Z,41.6
2018-05-27T00:50:44.905Z,41.6
2018-05-27T00:51:35.250Z,41.6
2018-05-27T00:52:25.293Z,41.6
2018-05-27T00:53:15.038Z,41.6
2018-05-27T00:54:05.132Z,41.6
2018-05-27T00:54:55.470Z,41.6
2018-05-27T00:55:44.369Z,41.5
2018-05-27T00:56:35.581Z,41.6
2018-05-27T00:57:25.087Z,41.5
2018-05-27T00:58:15.704Z,41.5
2018-05-27T00:59:05.194Z,41.5
2018-05-27T00:59:54.509Z,41.5
2018-05-27T01:00:45.627Z,41.5
2018-05-27T01:01:35.137Z,41.5
2018-05-27T01:02:25.214Z,41.5
2018-05-27T01:03:16.111Z,41.5
2018-05-27T01:04:05.874Z,41.5
2018-05-27T01:04:55.185Z,41.4
2018-05-27T01:05:46.043Z,41.4
2018-05-27T01:06:36.109Z,41.4
2018-05-27T01:07:26.116Z,41.4
2018-05-27T01:08:16.537Z,41.4
2018-05-27T01:09:06.561Z,41.4
2018-05-27T01:09:56.611Z,41.4
2018-05-27T01:10:46.412Z,41.4
2018-05-27T01:11:36.749Z,41.4
2018-05-27T01:12:27.016Z,41.4
2018-05-27T01:13:16.300Z,41.4
2018-05-27T01:14:06.358Z,41.4
2018-05-27T01:14:57.031Z,41.4
2018-05-27T01:15:46.833Z,41.4
2018-05-27T01:16:37.156Z,41.4
2018-05-27T01:17:26.928Z,41.4
2018-05-27T01:18:16.480Z,41.4
2018-05-27T01:19:07.059Z,41.3
2018-05-27T01:19:57.117Z,41.4
2018-05-27T01:20:47.452Z,41.3
2018-05-27T01:21:37.212Z,41.3
2018-05-27T01:22:27.282Z,41.3
2018-05-27T01:23:16.517Z,41.3
2018-05-27T01:24:07.428Z,41.3
2018-05-27T01:24:56.928Z,41.2
2018-05-27T01:25:47.549Z,41.2
2018-05-27T01:26:37.876Z,41.2
2018-05-27T01:27:27.397Z,41.1
2018-05-27T01:28:18.030Z,41.1
2018-05-27T01:29:08.090Z,41.1
2018-05-27T01:29:58.163Z,41.1
2018-05-27T01:30:47.660Z,41.1
2018-05-27T01:31:38.022Z,41.1
2018-05-27T01:32:28.037Z,41
2018-05-27T01:33:18.132Z,41
2018-05-27T01:34:08.458Z,41
2018-05-27T01:34:57.977Z,41
2018-05-27T01:35:48.609Z,41
2018-05-27T01:36:38.361Z,40.9
2018-05-27T01:37:27.032Z,40.9
2018-05-27T01:38:18.215Z,40.9
2018-05-27T01:39:08.600Z,40.9
2018-05-27T01:39:58.659Z,40.9
2018-05-27T01:40:48.969Z,40.9
2018-05-27T01:41:39.064Z,40.9
2018-05-27T01:42:29.171Z,40.9
2018-05-27T01:43:18.633Z,40.9
2018-05-27T01:44:08.966Z,40.9
2018-05-27T01:44:59.313Z,40.9
2018-05-27T01:45:49.372Z,40.8
2018-05-27T01:46:39.446Z,40.8
2018-05-27T01:47:29.247Z,40.8
2018-05-27T01:48:19.307Z,40.8
2018-05-27T01:49:09.336Z,40.8
2018-05-27T01:49:59.721Z,40.8
2018-05-27T01:50:49.744Z,40.8
2018-05-27T01:51:39.833Z,40.8
2018-05-27T01:52:29.580Z,40.8
2018-05-27T01:53:19.918Z,40.8
2018-05-27T01:54:09.447Z,40.8
2018-05-27T01:54:59.198Z,40.8
2018-05-27T01:55:49.625Z,40.8
2018-05-27T01:56:39.689Z,40.8
2018-05-27T01:57:30.025Z,40.7
2018-05-27T01:58:20.342Z,40.7
2018-05-27T01:59:10.381Z,40.7
2018-05-27T02:00:00.472Z,40.7
2018-05-27T02:00:50.521Z,40.6
2018-05-27T02:01:40.011Z,40.6
2018-05-27T02:02:30.383Z,40.6
2018-05-27T02:03:20.749Z,40.6
2018-05-27T02:04:10.524Z,40.5
2018-05-27T02:05:00.002Z,40.5
2018-05-27T02:05:50.099Z,40.4
2018-05-27T02:06:40.798Z,40.4
2018-05-27T02:07:30.173Z,40.4
2018-05-27T02:08:20.540Z,40.4
2018-05-27T02:09:10.618Z,40.3
2018-05-27T02:10:00.645Z,40.3
2018-05-27T02:10:51.006Z,40.3
2018-05-27T02:11:41.085Z,40.3
2018-05-27T02:12:30.855Z,40.3
2018-05-27T02:13:20.661Z,40.3
2018-05-27T02:14:10.982Z,40.3
2018-05-27T02:15:01.618Z,40.3
2018-05-27T02:15:51.122Z,40.3
2018-05-27T02:16:41.488Z,40.2
2018-05-27T02:17:31.264Z,40.2
2018-05-27T02:18:21.613Z,40.2
2018-05-27T02:19:10.813Z,40.2
2018-05-27T02:20:01.450Z,40.2
2018-05-27T02:20:52.090Z,40.1
2018-05-27T02:21:41.313Z,40.1
2018-05-27T02:22:31.943Z,40.1
2018-05-27T02:23:22.000Z,40.1
2018-05-27T02:24:11.478Z,40.1
2018-05-27T02:25:01.870Z,40.1
2018-05-27T02:25:51.895Z,40.1
2018-05-27T02:26:42.250Z,40.1
2018-05-27T02:27:32.588Z,40.1
2018-05-27T02:28:22.676Z,40.1
2018-05-27T02:29:12.501Z,40
2018-05-27T02:30:02.801Z,40
2018-05-27T02:30:52.023Z,40
2018-05-27T02:31:42.952Z,40
2018-05-27T02:32:32.715Z,40
2018-05-27T02:33:22.483Z,40
2018-05-27T02:34:13.150Z,39.9
2018-05-27T02:35:02.915Z,39.9
2018-05-27T02:35:53.399Z,39.9
2018-05-27T02:36:42.802Z,39.9
2018-05-27T02:37:33.362Z,39.9
2018-05-27T02:38:23.152Z,39.9
2018-05-27T02:39:12.928Z,39.9
2018-05-27T02:40:03.605Z,39.9
2018-05-27T02:40:53.369Z,39.9
2018-05-27T02:41:43.829Z,39.9
2018-05-27T02:42:33.753Z,39.9
2018-05-27T02:43:23.561Z,39.9
2018-05-27T02:44:13.613Z,39.9
2018-05-27T02:45:03.125Z,39.9
2018-05-27T02:45:53.751Z,39.9
2018-05-27T02:46:43.656Z,39.8
2018-05-27T02:47:34.305Z,39.8
2018-05-27T02:48:23.776Z,39.8
2018-05-27T02:49:13.987Z,39.8
2018-05-27T02:50:04.385Z,39.8
2018-05-27T02:50:54.176Z,39.8
2018-05-27T02:51:44.187Z,39.8
2018-05-27T02:52:34.211Z,39.8
2018-05-27T02:53:24.311Z,39.8
2018-05-27T02:54:14.628Z,39.8
2018-05-27T02:55:04.487Z,39.8
2018-05-27T02:55:54.213Z,39.8
2018-05-27T02:56:44.856Z,39.8
2018-05-27T02:57:34.913Z,39.8
2018-05-27T02:58:24.719Z,39.8
2018-05-27T02:59:15.018Z,39.7
2018-05-27T03:00:04.543Z,39.7
2018-05-27T03:00:54.104Z,39.8
2018-05-27T03:01:44.936Z,39.7
2018-05-27T03:02:35.040Z,39.7
2018-05-27T03:03:25.373Z,39.7
2018-05-27T03:04:14.839Z,39.7
2018-05-27T03:05:05.518Z,39.6
2018-05-27T03:05:55.294Z,39.7
2018-05-27T03:06:45.645Z,39.7
2018-05-27T03:07:35.870Z,39.6
2018-05-27T03:08:25.466Z,39.6
2018-05-27T03:09:15.366Z,39.6
2018-05-27T03:10:05.918Z,39.6
2018-05-27T03:10:55.936Z,39.6
2018-05-27T03:11:45.704Z,39.6
2018-05-27T03:12:35.473Z,39.6
2018-05-27T03:13:25.586Z,39.6
2018-05-27T03:14:16.204Z,39.6
2018-05-27T03:15:05.982Z,39.6
2018-05-27T03:15:56.334Z,39.6
2018-05-27T03:16:46.150Z,39.6
2018-05-27T03:17:36.151Z,39.6
2018-05-27T03:18:26.211Z,39.5
2018-05-27T03:19:16.278Z,39.6
2018-05-27T03:20:06.379Z,39.5
2018-05-27T03:20:56.389Z,39.5
2018-05-27T03:21:46.762Z,39.5
2018-05-27T03:22:36.271Z,39.5
2018-05-27T03:23:26.082Z,39.5
2018-05-27T03:24:16.395Z,39.5
2018-05-27T03:25:56.521Z,39.4
2018-05-27T03:26:46.880Z,39.4
2018-05-27T03:27:37.217Z,39.5
2018-05-27T03:28:27.036Z,39.4
2018-05-27T03:29:16.766Z,39.4
2018-05-27T03:30:06.936Z,39.4
2018-05-27T03:30:57.299Z,39.4
2018-05-27T03:31:46.714Z,39.4
2018-05-27T03:32:37.594Z,39.4
2018-05-27T03:33:27.369Z,39.4
2018-05-27T03:34:17.154Z,39.4
2018-05-27T03:35:07.778Z,39.4
2018-05-27T03:35:56.771Z,39.4
2018-05-27T03:36:48.430Z,39.4
2018-05-27T03:37:37.743Z,39.4
2018-05-27T03:38:27.766Z,39.4
2018-05-27T03:39:18.091Z,39.3
2018-05-27T03:40:07.870Z,39.4
2018-05-27T03:40:57.695Z,39.3
2018-05-27T03:41:48.024Z,39.3
2018-05-27T03:42:37.784Z,39.3
2018-05-27T03:43:27.871Z,39.3
2018-05-27T03:44:17.953Z,39.3
2018-05-27T03:45:08.329Z,39.3
2018-05-27T03:45:58.599Z,39.3
2018-05-27T03:46:47.852Z,39.3
2018-05-27T03:47:38.765Z,39.3
2018-05-27T03:48:28.570Z,39.3
2018-05-27T03:49:18.327Z,39.3
2018-05-27T03:50:08.960Z,39.3
2018-05-27T03:50:58.731Z,39.3
2018-05-27T03:51:48.805Z,39.3
2018-05-27T03:52:38.310Z,39.3
2018-05-27T03:53:28.649Z,39.3
2018-05-27T03:54:18.973Z,39.3
2018-05-27T03:55:09.068Z,39.3
2018-05-27T03:55:59.369Z,39.3
2018-05-27T03:56:49.192Z,39.2
2018-05-27T03:57:39.222Z,39.2
2018-05-27T03:58:29.601Z,39.2
2018-05-27T03:59:19.415Z,39.2
2018-05-27T04:00:09.136Z,39.2
2018-05-27T04:00:59.782Z,39.2
2018-05-27T04:01:49.844Z,39.2
2018-05-27T04:02:38.768Z,39.1
2018-05-27T04:03:29.976Z,39.2
2018-05-27T04:04:19.201Z,39.1
2018-05-27T04:05:09.242Z,39.1
2018-05-27T04:05:59.361Z,39.1
2018-05-27T04:06:50.249Z,39.1
2018-05-27T04:07:39.774Z,39.1
2018-05-27T04:08:30.333Z,39.1
2018-05-27T04:09:20.190Z,39.1
2018-05-27T04:10:09.951Z,39.1
2018-05-27T04:11:00.271Z,39.1
2018-05-27T04:11:50.610Z,39.1
2018-05-27T04:12:40.700Z,39.1
2018-05-27T04:13:30.746Z,39.1
2018-05-27T04:14:20.531Z,39.1
2018-05-27T04:15:10.593Z,39.1
2018-05-27T04:16:00.968Z,39
2018-05-27T04:16:50.713Z,39
2018-05-27T04:17:40.490Z,39
2018-05-27T04:18:30.318Z,39.1
2018-05-27T04:19:20.653Z,39
2018-05-27T04:20:11.258Z,39
2018-05-27T04:21:01.323Z,39
2018-05-27T04:21:51.119Z,39
2018-05-27T04:22:40.896Z,39
2018-05-27T04:23:31.573Z,38.9
2018-05-27T04:24:21.574Z,38.9
2018-05-27T04:25:10.801Z,38.9
2018-05-27T04:26:01.423Z,38.9
2018-05-27T04:26:51.780Z,38.9
2018-05-27T04:27:41.826Z,38.9
2018-05-27T04:28:31.720Z,38.9
2018-05-27T04:29:21.995Z,38.9
2018-05-27T04:30:12.081Z,38.9
2018-05-27T04:31:01.833Z,38.9
2018-05-27T04:31:52.175Z,38.9
2018-05-27T04:32:42.212Z,38.9
2018-05-27T04:33:32.294Z,38.9
2018-05-27T04:34:22.080Z,38.9
2018-05-27T04:35:12.117Z,38.9
2018-05-27T04:36:02.182Z,38.9
2018-05-27T04:36:52.551Z,38.9
2018-05-27T04:37:42.592Z,38.9
2018-05-27T04:38:32.124Z,38.9
2018-05-27T04:39:22.737Z,38.8
2018-05-27T04:40:12.557Z,38.9
2018-05-27T04:41:02.320Z,38.8
2018-05-27T04:41:52.660Z,38.9
2018-05-27T04:42:43.024Z,38.8
2018-05-27T04:43:32.479Z,38.8
2018-05-27T04:44:22.842Z,38.8
2018-05-27T04:45:13.212Z,38.8
2018-05-27T04:46:02.992Z,38.8
2018-05-27T04:46:53.346Z,38.8
2018-05-27T04:47:43.101Z,38.8
2018-05-27T04:48:33.211Z,38.8
2018-05-27T04:49:23.243Z,38.8
2018-05-27T04:50:13.595Z,38.8
2018-05-27T04:51:03.347Z,38.8
2018-05-27T04:51:53.441Z,38.8
2018-05-27T04:52:43.222Z,38.8
2018-05-27T04:53:33.873Z,38.8
2018-05-27T04:54:23.926Z,38.8
2018-05-27T04:55:13.421Z,38.8
2018-05-27T04:56:03.473Z,38.7
2018-05-27T04:56:54.106Z,38.7
2018-05-27T04:57:43.865Z,38.6
2018-05-27T04:58:33.913Z,38.6
2018-05-27T04:59:24.020Z,38.6
2018-05-27T05:00:14.088Z,38.5
2018-05-27T05:01:03.838Z,38.5
2018-05-27T05:01:53.915Z,38.4
2018-05-27T05:02:44.263Z,38.4
2018-05-27T05:03:34.596Z,38.4
2018-05-27T05:04:24.366Z,38.4
2018-05-27T05:05:14.721Z,38.3
2018-05-27T05:06:04.222Z,38.3
2018-05-27T05:06:54.587Z,38.3
2018-05-27T05:07:44.381Z,38.3
2018-05-27T05:08:34.984Z,38.3
2018-05-27T05:09:24.682Z,38.2
2018-05-27T05:10:14.826Z,38.2
2018-05-27T05:11:04.915Z,38.1
2018-05-27T05:11:55.057Z,38.1
2018-05-27T05:12:45.354Z,38.1
2018-05-27T05:13:34.810Z,38.1
2018-05-27T05:14:25.450Z,38.1
2018-05-27T05:15:15.488Z,38.1
2018-05-27T05:16:04.454Z,38
2018-05-27T05:16:55.337Z,38
2018-05-27T05:17:45.714Z,38
2018-05-27T05:18:35.483Z,37.9
2018-05-27T05:19:25.296Z,37.9
2018-05-27T05:20:15.358Z,37.9
2018-05-27T05:21:05.481Z,37.9
2018-05-27T05:21:55.091Z,37.9
2018-05-27T05:22:44.752Z,37.9
2018-05-27T05:23:35.414Z,37.9
2018-05-27T05:24:26.353Z,31.2
2018-05-27T05:25:16.261Z,31.9
2018-05-27T05:26:06.325Z,34.5
2018-05-27T05:26:56.127Z,33.6
2018-05-27T05:27:46.276Z,31.5
2018-05-27T05:28:35.701Z,30.5
2018-05-27T05:29:26.051Z,30
2018-05-27T05:30:16.646Z,29.8
2018-05-27T05:31:06.430Z,29.8
2018-05-27T05:31:56.775Z,29.8
2018-05-27T05:32:46.588Z,29.9
2018-05-27T05:33:36.074Z,30.1
2018-05-27T05:34:26.731Z,30.4
2018-05-27T05:35:16.502Z,30.9
2018-05-27T05:36:06.554Z,31.3
2018-05-27T05:36:56.617Z,31.6
2018-05-27T05:37:46.965Z,30.6
2018-05-27T05:38:37.017Z,32.9
2018-05-27T05:39:27.381Z,35.9
2018-05-27T05:40:16.868Z,36.7
2018-05-27T05:41:07.236Z,36.3
2018-05-27T05:41:57.275Z,35.6
2018-05-27T05:42:47.387Z,35.4
2018-05-27T05:43:37.194Z,35.7
2018-05-27T05:44:27.167Z,36.2
2018-05-27T05:45:17.324Z,36.6
2018-05-27T05:46:07.605Z,36.8
2018-05-27T05:46:57.948Z,36.9
2018-05-27T05:47:47.999Z,36.9
2018-05-27T05:48:38.109Z,37
2018-05-27T05:49:27.708Z,37.3
2018-05-27T05:50:18.211Z,37.4
2018-05-27T05:51:08.300Z,37.6
2018-05-27T05:51:58.381Z,37.8
2018-05-27T05:52:48.395Z,37.9
2018-05-27T05:53:38.468Z,38.1
2018-05-27T05:54:28.010Z,38.3
2018-05-27T05:55:18.599Z,38.4
2018-05-27T05:56:08.085Z,38.5
2018-05-27T05:56:58.430Z,38.7
2018-05-27T05:57:47.677Z,38.9
2018-05-27T05:58:38.271Z,39.1
2018-05-27T05:59:28.665Z,39.2
2018-05-27T06:00:18.981Z,39.3
2018-05-27T06:01:09.298Z,39.4
2018-05-27T06:01:58.818Z,39.5
2018-05-27T06:02:48.920Z,39.6
2018-05-27T06:03:38.963Z,39.8
2018-05-27T06:04:29.308Z,39.8
2018-05-27T06:05:18.835Z,39.9
2018-05-27T06:06:08.585Z,40.1
2018-05-27T06:06:59.226Z,40.3
2018-05-27T06:07:48.810Z,40.4
2018-05-27T06:08:39.189Z,40.6
2018-05-27T06:09:29.802Z,40.7
2018-05-27T06:10:19.282Z,40.9
2018-05-27T06:11:09.366Z,40.9
2018-05-27T06:11:59.148Z,41.1
2018-05-27T06:12:48.599Z,41.3
2018-05-27T06:13:40.240Z,41.4
2018-05-27T06:14:29.817Z,41.6
2018-05-27T06:15:19.709Z,41.7
2018-05-27T06:16:09.753Z,41.9
2018-05-27T06:16:59.222Z,42
2018-05-27T06:17:49.868Z,42.2
2018-05-27T06:18:39.363Z,42.3
2018-05-27T06:19:30.080Z,42.4
2018-05-27T06:20:20.026Z,42.6
2018-05-27T06:21:09.468Z,42.8
2018-05-27T06:21:59.309Z,42.9
2018-05-27T06:22:50.738Z,43
2018-05-27T06:23:40.500Z,43.1
2018-05-27T06:24:30.591Z,43.3
2018-05-27T06:25:20.653Z,43.4
2018-05-27T06:26:10.448Z,43.6
2018-05-27T06:27:00.487Z,43.7
2018-05-27T06:27:50.609Z,43.8
2018-05-27T06:28:40.901Z,43.9
2018-05-27T06:29:31.227Z,44.1
2018-05-27T06:30:21.054Z,44.2
2018-05-27T06:31:11.356Z,44.3
2018-05-27T06:32:01.719Z,44.4
2018-05-27T06:32:51.244Z,44.5
2018-05-27T06:33:41.600Z,44.6
2018-05-27T06:34:31.379Z,44.8
2018-05-27T06:35:21.161Z,44.9
2018-05-27T06:36:11.218Z,45
2018-05-27T06:37:01.574Z,45.1
2018-05-27T06:37:51.615Z,45.3
2018-05-27T06:38:41.246Z,45.4
2018-05-27T06:39:31.745Z,45.6
2018-05-27T06:40:21.263Z,45.7
2018-05-27T06:41:11.858Z,45.9
2018-05-27T06:42:01.710Z,46.1
2018-05-27T06:42:52.005Z,46.2
2018-05-27T06:43:42.393Z,46.3
2018-05-27T06:44:32.468Z,46.5
2018-05-27T06:45:21.661Z,46.6
2018-05-27T06:46:11.990Z,46.8
2018-05-27T06:47:02.608Z,46.9
2018-05-27T06:47:51.837Z,47
2018-05-27T06:48:42.747Z,47.1
2018-05-27T06:49:32.269Z,47.3
2018-05-27T06:50:22.886Z,47.4
2018-05-27T06:51:12.852Z,47.6
2018-05-27T06:52:03.011Z,47.7
2018-05-27T06:52:53.053Z,47.9
2018-05-27T06:53:43.163Z,48
2018-05-27T06:54:33.167Z,48.2
2018-05-27T06:55:22.995Z,48.3
2018-05-27T06:56:13.319Z,48.5
2018-05-27T06:57:03.095Z,48.7
2018-05-27T06:57:53.516Z,48.8
2018-05-27T06:58:43.520Z,49
2018-05-27T06:59:33.581Z,49.2
2018-05-27T07:00:23.662Z,49.2
2018-05-27T07:01:13.196Z,49.1
2018-05-27T07:02:03.514Z,49.1
2018-05-27T07:02:53.858Z,49.4
2018-05-27T07:03:43.633Z,49.8
2018-05-27T07:04:34.731Z,50.3
2018-05-27T07:05:23.757Z,50.4
2018-05-27T07:06:14.104Z,50.1
2018-05-27T07:07:04.172Z,49.5
2018-05-27T07:07:53.942Z,48.7
2018-05-27T07:08:44.041Z,48.1
2018-05-27T07:09:34.105Z,47.8
2018-05-27T07:10:24.145Z,47.6
2018-05-27T07:11:14.523Z,47.4
2018-05-27T07:12:04.316Z,47.3
2018-05-27T07:12:54.613Z,47.2
2018-05-27T07:13:43.918Z,47.2
2018-05-27T07:14:34.791Z,47.8
2018-05-27T07:15:24.866Z,48.7
2018-05-27T07:16:14.861Z,49.1
2018-05-27T07:17:05.258Z,48.8
2018-05-27T07:17:54.774Z,48.4
2018-05-27T07:18:44.833Z,48.4
2018-05-27T07:19:34.888Z,48.5
2018-05-27T07:20:24.425Z,48.4
2018-05-27T07:21:15.052Z,48.1
2018-05-27T07:22:04.818Z,47.8
2018-05-27T07:22:55.484Z,47.6
2018-05-27T07:23:45.485Z,47.4
2018-05-27T07:24:35.566Z,47.4
2018-05-27T07:25:24.804Z,47.4
2018-05-27T07:26:15.096Z,47.5
2018-05-27T07:27:07.136Z,47.9
2018-05-27T07:27:57.774Z,48.3
2018-05-27T07:28:47.893Z,48.4
2018-05-27T07:29:37.331Z,48.9
2018-05-27T07:30:27.981Z,49.6
2018-05-27T07:31:17.804Z,49.9
2018-05-27T07:32:07.820Z,50
2018-05-27T07:32:58.179Z,50.4
2018-05-27T07:33:47.353Z,51.3
2018-05-27T07:34:38.297Z,52.3
2018-05-27T07:35:28.360Z,52.9
2018-05-27T07:36:15.885Z,53.4
2018-05-27T07:37:06.298Z,53.7
2018-05-27T07:37:56.303Z,53.9
2018-05-27T07:38:46.672Z,54.1
2018-05-27T07:39:36.188Z,54.3
2018-05-27T07:40:26.818Z,54.6
2018-05-27T07:41:16.593Z,54.8
2018-05-27T07:42:06.100Z,54.8
2018-05-27T07:42:56.698Z,54.9
2018-05-27T07:43:46.215Z,55.1
2018-05-27T07:44:37.148Z,55.3
2018-05-27T07:45:26.924Z,55.1
2018-05-27T07:46:17.021Z,54.6
2018-05-27T07:47:06.760Z,54.4
2018-05-27T07:47:57.410Z,54.3
2018-05-27T07:48:46.892Z,54.1
2018-05-27T07:49:37.254Z,54.3
2018-05-27T07:50:27.339Z,54.7
2018-05-27T07:51:17.100Z,55.1
2018-05-27T07:52:07.443Z,55.2
2018-05-27T07:52:57.786Z,55.3
2018-05-27T07:53:47.266Z,55.6
2018-05-27T07:54:37.601Z,56.2
2018-05-27T07:55:27.502Z,56.8
2018-05-27T07:56:17.749Z,57.2
2018-05-27T07:57:07.624Z,57.5
2018-05-27T07:58:47.692Z,58
2018-05-27T07:59:38.284Z,58.3
2018-05-27T08:00:28.124Z,58.6
2018-05-27T08:01:17.921Z,58.8
2018-05-27T08:02:08.234Z,59
2018-05-27T08:02:58.259Z,59.1
2018-05-27T08:03:48.648Z,59.3
2018-05-27T08:04:38.426Z,59.4
2018-05-27T08:05:28.489Z,59.6
2018-05-27T08:06:18.529Z,59.7
2018-05-27T08:07:08.988Z,59.9
2018-05-27T08:07:58.962Z,60.1
2018-05-27T08:08:49.039Z,60.2
2018-05-27T08:09:38.503Z,60.3
2018-05-27T08:10:28.887Z,60.4
2018-05-27T08:11:19.221Z,60.5
2018-05-27T08:12:09.282Z,60.6
2018-05-27T08:12:58.503Z,60.7
2018-05-27T08:13:48.522Z,60.8
2018-05-27T08:14:39.261Z,60.8
2018-05-27T08:15:29.300Z,60.9
2018-05-27T08:16:19.339Z,61
2018-05-27T08:17:09.411Z,61.1
2018-05-27T08:17:59.157Z,61.3
2018-05-27T08:18:49.818Z,61.4
2018-05-27T08:19:39.354Z,61.4
2018-05-27T08:20:29.649Z,61.6
2018-05-27T08:21:19.455Z,61.7
2018-05-27T08:22:10.086Z,61.8
2018-05-27T08:22:59.299Z,61.9
2018-05-27T08:23:49.935Z,62.1
2018-05-27T08:24:39.985Z,61.9
2018-05-27T08:25:29.743Z,60.9
2018-05-27T08:26:19.636Z,60
2018-05-27T08:27:10.210Z,60
2018-05-27T08:28:00.235Z,60.8
2018-05-27T08:28:50.318Z,61.7
2018-05-27T08:29:40.648Z,61.9
2018-05-27T08:30:30.483Z,61.3
2018-05-27T08:31:20.297Z,60.8
2018-05-27T08:32:10.005Z,61.1
2018-05-27T08:33:00.640Z,61.8
2018-05-27T08:33:50.146Z,62.4
2018-05-27T08:34:40.798Z,62.8
2018-05-27T08:35:31.106Z,62.9
2018-05-27T08:36:21.184Z,62.9
2018-05-27T08:37:10.973Z,62.9
2018-05-27T08:38:00.761Z,63
2018-05-27T08:38:50.263Z,63.2
2018-05-27T08:39:41.153Z,63.4
2018-05-27T08:40:31.503Z,63.6
2018-05-27T08:41:21.264Z,63.7
2018-05-27T08:42:11.373Z,63.8
2018-05-27T08:43:01.481Z,63.9
2018-05-27T08:43:51.210Z,64.1
2018-05-27T08:44:41.943Z,64.2
2018-05-27T08:45:33.588Z,64.4
2018-05-27T08:46:23.355Z,64.4
2018-05-27T08:47:14.053Z,64.5
2018-05-27T08:48:03.827Z,64.6
2018-05-27T08:48:53.113Z,64.9
2018-05-27T08:49:43.631Z,65.1
2018-05-27T08:50:33.956Z,65.4
2018-05-27T08:51:24.329Z,65.6
2018-05-27T08:52:13.802Z,65.7
2018-05-27T08:53:03.862Z,65.7
2018-05-27T08:53:54.199Z,65.6
2018-05-27T08:54:43.724Z,65.6
2018-05-27T08:55:34.440Z,65.6
2018-05-27T08:56:24.733Z,65.7
2018-05-27T08:57:14.064Z,65.8
2018-05-27T08:58:04.570Z,66
2018-05-27T08:58:54.324Z,66.2
2018-05-27T08:59:44.252Z,66.3
2018-05-27T09:00:34.210Z,66.5
2018-05-27T09:01:25.943Z,66.6
2018-05-27T09:02:14.576Z,66.7
2018-05-27T09:03:04.954Z,66.6
2018-05-27T09:03:54.829Z,66.6
2018-05-27T09:04:43.926Z,66.6
2018-05-27T09:05:35.463Z,66.6
2018-05-27T09:06:24.957Z,66.6
2018-05-27T09:07:14.972Z,66.6
2018-05-27T09:08:04.759Z,66.5
2018-05-27T09:08:55.063Z,66.5
2018-05-27T09:09:45.263Z,66.5
2018-05-27T09:10:35.805Z,66.6
2018-05-27T09:11:25.888Z,66.7
2018-05-27T09:12:14.879Z,66.8
2018-05-27T09:13:05.469Z,66.9
2018-05-27T09:13:55.239Z,66.9
2018-05-27T09:14:45.865Z,66.9
2018-05-27T09:15:35.970Z,66.8
2018-05-27T09:16:25.148Z,66.8
2018-05-27T09:17:16.079Z,66.7
2018-05-27T09:18:05.861Z,66.7
2018-05-27T09:18:55.958Z,66.8
2018-05-27T09:19:46.277Z,66.9
2018-05-27T09:20:36.061Z,67
2018-05-27T09:21:26.067Z,67.1
2018-05-27T09:22:15.889Z,67.3
2018-05-27T09:23:06.479Z,67.5
2018-05-27T09:23:56.605Z,67.7
2018-05-27T09:24:47.067Z,67.9
2018-05-27T09:25:36.464Z,68.1
2018-05-27T09:26:26.781Z,68.4
2018-05-27T09:27:16.838Z,68.8
2018-05-27T09:28:06.731Z,68.7
2018-05-27T09:28:55.612Z,68.3
2018-05-27T09:29:47.047Z,67.7
2018-05-27T09:30:35.962Z,67.6
2018-05-27T09:31:27.214Z,67.8
2018-05-27T09:32:16.966Z,68.3
2018-05-27T09:33:07.316Z,68.4
2018-05-27T09:33:57.409Z,68
2018-05-27T09:34:46.347Z,67.8
2018-05-27T09:35:37.209Z,67.9
2018-05-27T09:36:27.585Z,67.9
2018-05-27T09:37:17.632Z,67.9
2018-05-27T09:38:07.127Z,67.8
2018-05-27T09:38:57.739Z,67.2
2018-05-27T09:39:47.551Z,66.4
2018-05-27T09:40:37.597Z,66.6
2018-05-27T09:41:28.282Z,67.4
2018-05-27T09:42:18.049Z,68.1
2018-05-27T09:43:08.076Z,68.4
2018-05-27T09:43:58.131Z,67.9
2018-05-27T09:44:48.204Z,66.9
2018-05-27T09:45:38.658Z,65.9
2018-05-27T09:46:28.376Z,65.1
2018-05-27T09:47:17.655Z,64.6
2018-05-27T09:48:08.017Z,64.1
2018-05-27T09:48:57.978Z,63.5
2018-05-27T09:49:48.590Z,62.9
2018-05-27T09:50:38.256Z,62.6
2018-05-27T09:51:28.921Z,63.1
2018-05-27T09:52:18.493Z,63.8
2018-05-27T09:53:08.867Z,64.4
2018-05-27T09:53:58.341Z,64.8
2018-05-27T09:54:49.292Z,65.1
2018-05-27T09:55:38.753Z,65.3
2018-05-27T09:56:28.533Z,65.4
2018-05-27T09:57:18.911Z,65.7
2018-05-27T09:58:08.589Z,66.1
2018-05-27T09:58:59.595Z,66.4
2018-05-27T09:59:49.113Z,66.7
2018-05-27T10:00:38.882Z,66.9
2018-05-27T10:01:29.240Z,67
2018-05-27T10:02:19.277Z,67.2
2018-05-27T10:03:08.531Z,67.4
2018-05-27T10:03:59.705Z,67.7
2018-05-27T10:04:49.466Z,67.9
2018-05-27T10:05:39.857Z,68.2
2018-05-27T10:06:29.667Z,68.4
2018-05-27T10:07:19.710Z,68.5
2018-05-27T10:08:10.050Z,68.7
2018-05-27T10:08:59.802Z,68.9
2018-05-27T10:09:50.425Z,69
2018-05-27T10:10:40.477Z,69.1
2018-05-27T10:11:30.037Z,69.2
2018-05-27T10:12:19.505Z,69.3
2018-05-27T10:13:10.126Z,69.5
2018-05-27T10:14:00.245Z,69.6
2018-05-27T10:14:49.958Z,69.8
2018-05-27T10:15:40.897Z,69.8
2018-05-27T10:16:30.708Z,69.9
2018-05-27T10:17:20.527Z,70
2018-05-27T10:18:11.148Z,70.1
2018-05-27T10:19:00.992Z,70.2
2018-05-27T10:19:51.236Z,70.3
2018-05-27T10:20:41.290Z,70.3
2018-05-27T10:21:31.413Z,70.4
2018-05-27T10:22:21.425Z,70.5
2018-05-27T10:23:10.641Z,70.6
2018-05-27T10:24:01.008Z,70.6
2018-05-27T10:24:51.060Z,70.7
2018-05-27T10:25:41.419Z,70.8
2018-05-27T10:26:30.606Z,70.8
2018-05-27T10:27:21.860Z,70.9
2018-05-27T10:28:11.042Z,71
2018-05-27T10:29:01.976Z,71.1
2018-05-27T10:29:51.668Z,71.1
2018-05-27T10:30:42.083Z,70.4
2018-05-27T10:31:31.258Z,68.4
2018-05-27T10:32:22.238Z,66.4
2018-05-27T10:33:11.964Z,64.4
2018-05-27T10:34:02.044Z,63
2018-05-27T10:34:51.283Z,61.9
2018-05-27T10:35:42.203Z,61.1
2018-05-27T10:36:32.529Z,60.3
2018-05-27T10:37:22.586Z,59.6
2018-05-27T10:38:11.505Z,58.8
2018-05-27T10:39:02.673Z,58.2
2018-05-27T10:39:52.508Z,57.5
2018-05-27T10:40:42.282Z,56.9
2018-05-27T10:41:32.340Z,56.5
2018-05-27T10:42:22.123Z,56.3
2018-05-27T10:43:12.568Z,56.1
2018-05-27T10:44:03.093Z,56.3
2018-05-27T10:44:52.137Z,57.4
2018-05-27T10:45:42.492Z,58.9
2018-05-27T10:46:33.019Z,60.3
2018-05-27T10:47:21.428Z,61.1
2018-05-27T10:48:11.496Z,61.5
2018-05-27T10:49:01.572Z,61.8
2018-05-27T10:49:51.642Z,62.1
2018-05-27T10:50:41.387Z,62.4
2018-05-27T10:51:33.210Z,62.8
2018-05-27T10:52:23.449Z,63.1
2018-05-27T10:53:13.543Z,63.4
2018-05-27T10:54:03.887Z,63.6
2018-05-27T10:54:53.651Z,63.7
2018-05-27T10:55:43.181Z,63.9
2018-05-27T10:56:34.060Z,64.1
2018-05-27T10:57:24.151Z,64.3
2018-05-27T10:58:13.637Z,64.5
2018-05-27T10:59:03.989Z,64.8
2018-05-27T10:59:54.618Z,64.9
2018-05-27T11:00:43.308Z,65.1
2018-05-27T11:01:34.386Z,65.3
2018-05-27T11:02:24.563Z,65.4
2018-05-27T11:03:14.037Z,65.6
2018-05-27T11:04:04.355Z,65.8
2018-05-27T11:04:54.176Z,66
2018-05-27T11:05:45.384Z,66.3
2018-05-27T11:06:34.878Z,65.9
2018-05-27T11:07:24.357Z,64.8
2018-05-27T11:08:14.712Z,63.6
2018-05-27T11:09:05.088Z,62.8
2018-05-27T11:09:55.123Z,63.3
2018-05-27T11:10:44.951Z,64.5
2018-05-27T11:11:35.233Z,65.7